createdAt,value
2023-01-11T00:03:07.186Z,7.59
2023-01-11T00:06:12.186Z,7.69
2023-01-11T00:09:16.342Z,7.23
2023-01-11T00:12:19.208Z,7.49
2023-01-11T00:15:21.996Z,7.19
2023-01-11T00:18:24.888Z,7.44
2023-01-11T00:21:29.068Z,7.58
2023-01-11T00:24:31.941Z,7.50
2023-01-11T00:27:34.721Z,7.49
2023-01-11T00:30:37.468Z,7.44
2023-01-11T00:33:40.424Z,7.15
2023-01-11T00:36:44.658Z,7.26
2023-01-11T00:39:47.450Z,7.54
2023-01-11T00:43:07.714Z,7.31
2023-01-11T00:46:27.942Z,7.04
2023-01-11T00:49:31.472Z,7.35
2023-01-11T00:52:35.695Z,7.05
2023-01-11T00:55:38.737Z,7.01
2023-01-11T00:58:41.591Z,7.44
2023-01-11T01:01:44.544Z,7.44
2023-01-11T01:04:47.426Z,6.91
2023-01-11T01:07:51.697Z,7.11
2023-01-11T01:10:54.500Z,7.52
2023-01-11T01:14:14.875Z,7.41
2023-01-11T01:17:17.761Z,7.29
2023-01-11T01:20:21.210Z,7.59
2023-01-11T01:23:25.475Z,7.13
2023-01-11T01:26:28.406Z,7.57
2023-01-11T01:29:31.171Z,7.55
2023-01-11T01:32:33.952Z,7.51
2023-01-11T01:35:38.767Z,7.23
2023-01-11T01:38:42.884Z,7.49
2023-01-11T01:41:45.638Z,7.59
2023-01-11T01:44:57.957Z,7.60
2023-01-11T01:48:02.773Z,7.52
2023-01-11T01:51:08.197Z,7.26
2023-01-11T01:54:15.940Z,7.84
2023-01-11T01:57:24.174Z,7.16
2023-01-11T02:00:27.195Z,8.00
2023-01-11T02:03:30.558Z,7.86
2023-01-11T02:06:33.720Z,8.02
2023-01-11T02:09:45.411Z,7.91
2023-01-11T02:12:52.449Z,7.51
2023-01-11T02:16:08.736Z,7.95
2023-01-11T02:19:22.110Z,8.13
2023-01-11T02:22:52.568Z,7.60
2023-01-11T02:26:48.413Z,7.54
2023-01-11T02:30:01.953Z,7.68
2023-01-11T02:33:13.691Z,8.12
2023-01-11T02:36:29.342Z,8.04
2023-01-11T02:39:44.443Z,7.89
2023-01-11T02:43:10.223Z,8.14
2023-01-11T02:46:21.957Z,8.05
2023-01-11T02:49:34.723Z,8.20
2023-01-11T02:52:43.825Z,7.87
2023-01-11T02:55:51.876Z,8.04
2023-01-11T02:58:57.919Z,7.84
2023-01-11T03:02:02.380Z,8.20
2023-01-11T03:05:12.883Z,7.94
2023-01-11T03:08:57.380Z,8.14
2023-01-11T03:12:29.072Z,8.20
2023-01-11T03:16:08.675Z,7.74
2023-01-11T03:19:23.443Z,7.54
2023-01-11T03:22:32.746Z,7.89
2023-01-11T03:25:46.178Z,8.08
2023-01-11T03:28:55.001Z,7.95
2023-01-11T03:32:09.270Z,8.26
2023-01-11T03:35:22.594Z,7.82
2023-01-11T03:38:31.731Z,8.16
2023-01-11T03:41:39.968Z,8.05
2023-01-11T03:44:48.147Z,7.85
2023-01-11T03:47:52.627Z,7.86
2023-01-11T03:50:59.011Z,8.43
2023-01-11T03:54:04.916Z,8.47
2023-01-11T03:57:14.230Z,8.09
2023-01-11T04:00:17.715Z,7.94
2023-01-11T04:03:20.530Z,8.14
2023-01-11T04:06:25.630Z,8.11
2023-01-11T04:09:28.493Z,8.24
2023-01-11T04:12:31.317Z,7.94
2023-01-11T04:15:35.899Z,7.76
2023-01-11T04:18:38.767Z,8.56
2023-01-11T04:21:42.947Z,8.29
2023-01-11T04:24:45.737Z,8.17
2023-01-11T04:27:48.481Z,8.47
2023-01-11T04:30:51.247Z,8.53
2023-01-11T04:33:54.141Z,8.29
2023-01-11T04:36:58.652Z,8.13
2023-01-11T04:40:01.436Z,8.40
2023-01-11T04:43:04.251Z,8.21
2023-01-11T04:46:07.387Z,8.45
2023-01-11T04:49:10.324Z,8.64
2023-01-11T04:52:16.433Z,8.57
2023-01-11T04:55:19.938Z,8.47
2023-01-11T04:58:22.757Z,8.69
2023-01-11T05:01:25.536Z,8.48
2023-01-11T05:04:28.531Z,8.78
2023-01-11T05:07:32.745Z,8.89
2023-01-11T05:10:35.647Z,8.73
2023-01-11T05:13:45.201Z,8.59
2023-01-11T05:16:48.216Z,8.46
2023-01-11T05:19:50.987Z,8.36
2023-01-11T05:22:55.105Z,8.50
2023-01-11T05:25:57.845Z,8.51
2023-01-11T05:29:01.938Z,8.56
2023-01-11T05:32:04.877Z,8.48
2023-01-11T05:35:10.146Z,8.84
2023-01-11T05:38:14.276Z,8.82
2023-01-11T05:41:18.274Z,8.83
2023-01-11T05:44:38.331Z,8.73
2023-01-11T05:47:41.312Z,8.78
2023-01-11T05:50:44.204Z,8.77
2023-01-11T05:53:48.533Z,9.16
2023-01-11T05:56:51.308Z,9.04
2023-01-11T05:59:54.090Z,9.21
2023-01-11T06:03:21.628Z,8.59
2023-01-11T06:06:24.594Z,8.55
2023-01-11T06:09:28.981Z,9.12
2023-01-11T06:12:31.908Z,8.94
2023-01-11T06:15:34.809Z,8.85
2023-01-11T06:18:44.461Z,9.31
2023-01-11T06:21:47.567Z,9.32
2023-01-11T06:24:51.883Z,8.89
2023-01-11T06:27:54.945Z,8.97
2023-01-11T06:30:59.555Z,9.38
2023-01-11T06:34:02.767Z,9.43
2023-01-11T06:37:06.447Z,9.09
2023-01-11T06:40:16.027Z,9.19
2023-01-11T06:43:18.907Z,9.20
2023-01-11T06:46:22.273Z,9.08
2023-01-11T06:49:25.111Z,9.52
2023-01-11T06:52:27.829Z,9.40
2023-01-11T06:55:36.718Z,9.52
2023-01-11T06:58:41.446Z,9.48
2023-01-11T07:01:46.040Z,9.17
2023-01-11T07:04:49.224Z,9.54
2023-01-11T07:07:52.406Z,9.14
2023-01-11T07:10:56.653Z,9.36
2023-01-11T07:13:59.702Z,9.56
2023-01-11T07:18:09.945Z,9.65
2023-01-11T07:21:42.799Z,9.67
2023-01-11T07:24:48.547Z,9.36
2023-01-11T07:28:00.706Z,9.43
2023-01-11T07:31:09.005Z,9.42
2023-01-11T07:34:12.992Z,9.24
2023-01-11T07:37:28.447Z,9.29
2023-01-11T07:40:32.484Z,9.56
2023-01-11T07:43:35.717Z,9.37
2023-01-11T07:46:43.645Z,9.65
2023-01-11T07:49:48.754Z,9.71
2023-01-11T07:52:52.206Z,9.75
2023-01-11T07:55:56.505Z,9.69
2023-01-11T07:59:00.972Z,9.89
2023-01-11T08:02:03.814Z,9.79
2023-01-11T08:05:07.521Z,10.05
2023-01-11T08:08:10.620Z,9.88
2023-01-11T08:11:48.750Z,10.00
2023-01-11T08:14:53.345Z,9.63
2023-01-11T08:17:56.154Z,9.65
2023-01-11T08:21:07.540Z,9.36
2023-01-11T08:24:10.539Z,9.74
2023-01-11T08:27:14.662Z,9.83
2023-01-11T08:30:19.785Z,9.78
2023-01-11T08:33:22.600Z,9.45
2023-01-11T08:36:28.678Z,9.91
2023-01-11T08:39:31.595Z,10.18
2023-01-11T08:42:34.393Z,10.01
2023-01-11T08:45:38.726Z,10.04
2023-01-11T08:48:42.121Z,10.22
2023-01-11T08:51:45.258Z,9.92
2023-01-11T08:54:48.275Z,10.06
2023-01-11T08:57:51.282Z,9.77
2023-01-11T09:00:59.236Z,10.26
2023-01-11T09:04:19.165Z,9.47
2023-01-11T09:07:26.456Z,10.11
2023-01-11T09:10:29.871Z,10.36
2023-01-11T09:13:32.581Z,10.39
2023-01-11T09:16:40.847Z,10.43
2023-01-11T09:19:43.497Z,10.32
2023-01-11T09:22:52.741Z,10.53
2023-01-11T09:25:59.936Z,10.57
2023-01-11T09:29:03.072Z,10.59
2023-01-11T09:32:07.412Z,10.66
2023-01-11T09:35:11.221Z,10.70
2023-01-11T09:38:13.876Z,10.76
2023-01-11T09:41:36.160Z,10.80
2023-01-11T09:44:49.737Z,10.88
2023-01-11T09:48:00.994Z,10.91
2023-01-11T09:51:05.135Z,10.85
2023-01-11T09:54:11.759Z,10.97
2023-01-11T09:57:23.920Z,10.95
2023-01-11T10:00:45.343Z,10.95
2023-01-11T10:04:17.905Z,10.95
2023-01-11T10:07:38.582Z,10.89
2023-01-11T10:18:29.209Z,10.94
2023-01-11T10:18:31.229Z,10.93
2023-01-11T10:21:46.440Z,10.95
2023-01-11T10:24:54.024Z,10.94
2023-01-11T10:28:03.270Z,10.95
2023-01-11T10:31:28.739Z,10.95
2023-01-11T10:34:51.414Z,10.99
2023-01-11T10:38:10.219Z,11.02
2023-01-11T10:41:26.071Z,11.02
2023-01-11T10:44:42.290Z,11.04
2023-01-11T10:47:54.841Z,11.05
2023-01-11T10:51:04.621Z,11.06
2023-01-11T10:54:16.774Z,11.08
2023-01-11T10:57:26.372Z,11.11
2023-01-11T11:00:36.526Z,11.10
2023-01-11T11:03:49.888Z,11.14
2023-01-11T11:07:02.331Z,11.14
2023-01-11T11:10:18.876Z,11.21
2023-01-11T11:13:42.533Z,11.26
2023-01-11T11:16:59.370Z,11.27
2023-01-11T11:20:15.133Z,11.28
2023-01-11T11:23:21.918Z,11.32
2023-01-11T11:26:32.111Z,11.29
2023-01-11T11:29:42.618Z,11.41
2023-01-11T11:32:58.231Z,11.40
2023-01-11T11:36:04.932Z,11.43
2023-01-11T11:39:12.486Z,11.46
2023-01-11T11:42:18.532Z,11.49
2023-01-11T11:45:21.337Z,11.51
2023-01-11T11:48:25.199Z,11.52
2023-01-11T11:51:28.583Z,11.51
2023-01-11T11:54:34.883Z,11.54
2023-01-11T11:57:42.722Z,11.54
2023-01-11T12:00:47.340Z,11.61
2023-01-11T12:03:51.903Z,11.69
2023-01-11T12:07:08.438Z,11.65
2023-01-11T12:10:16.182Z,11.98
2023-01-11T12:13:32.386Z,12.15
2023-01-11T12:16:39.250Z,12.23
2023-01-11T12:19:47.801Z,12.22
2023-01-11T12:22:51.031Z,12.19
2023-01-11T12:26:20.982Z,12.16
2023-01-11T12:29:46.523Z,12.19
2023-01-11T12:33:25.627Z,12.24
2023-01-11T12:36:38.008Z,12.20
2023-01-11T12:39:50.927Z,12.27
2023-01-11T12:43:17.784Z,12.34
2023-01-11T12:46:36.195Z,12.35
2023-01-11T12:49:46.986Z,12.34
2023-01-11T12:53:03.957Z,12.35
2023-01-11T12:56:24.773Z,12.36
2023-01-11T12:59:47.348Z,12.40
2023-01-11T13:03:08.262Z,12.38
2023-01-11T13:06:19.663Z,12.37
2023-01-11T13:09:31.261Z,12.42
2023-01-11T13:12:42.355Z,12.45
2023-01-11T13:15:57.635Z,12.46
2023-01-11T13:19:08.047Z,12.41
2023-01-11T13:22:18.874Z,12.38
2023-01-11T13:25:25.032Z,12.34
2023-01-11T13:28:32.131Z,12.36
2023-01-11T13:31:38.747Z,12.33
2023-01-11T13:34:48.256Z,12.21
2023-01-11T13:37:58.024Z,12.22
2023-01-11T13:41:10.862Z,12.20
2023-01-11T13:44:19.429Z,12.19
2023-01-11T13:47:29.617Z,12.15
2023-01-11T13:50:53.004Z,12.17
2023-01-11T13:54:02.113Z,12.23
2023-01-11T13:57:08.141Z,12.26
2023-01-11T14:00:24.943Z,12.23
2023-01-11T14:03:33.493Z,12.19
2023-01-11T14:06:59.888Z,12.17
2023-01-11T14:10:19.111Z,12.15
2023-01-11T14:14:18.039Z,12.15
2023-01-11T14:17:38.358Z,12.14
2023-01-11T14:20:47.191Z,12.14
2023-01-11T14:23:52.807Z,12.12
2023-01-11T14:27:17.346Z,12.09
2023-01-11T14:30:35.062Z,12.04
2023-01-11T14:34:06.276Z,12.04
2023-01-11T14:37:34.586Z,12.07
2023-01-11T14:40:49.088Z,12.05
2023-01-11T14:44:09.834Z,12.03
2023-01-11T14:47:42.251Z,12.01
2023-01-11T14:51:05.707Z,11.97
2023-01-11T14:54:12.845Z,11.91
2023-01-11T14:57:40.744Z,11.85
2023-01-11T15:01:11.138Z,11.77
2023-01-11T15:04:23.083Z,11.74
2023-01-11T15:07:34.461Z,11.65
2023-01-11T15:10:52.270Z,11.55
2023-01-11T15:13:59.725Z,11.51
2023-01-11T15:17:22.181Z,11.51
2023-01-11T15:20:26.532Z,11.42
2023-01-11T15:23:35.652Z,11.39
2023-01-11T15:26:49.435Z,11.26
2023-01-11T15:29:57.986Z,11.23
2023-01-11T15:33:45.485Z,11.16
2023-01-11T15:37:17.516Z,11.08
2023-01-11T15:40:21.874Z,11.03
2023-01-11T15:43:56.693Z,10.94
2023-01-11T15:47:32.098Z,10.92
2023-01-11T15:51:04.573Z,10.93
2023-01-11T15:54:23.096Z,10.95
2023-01-11T15:58:15.332Z,10.92
2023-01-11T16:01:23.711Z,10.96
2023-01-11T16:04:33.166Z,11.00
2023-01-11T16:07:44.049Z,11.04
2023-01-11T16:10:55.932Z,10.97
2023-01-11T16:14:15.427Z,10.85
2023-01-11T16:17:22.241Z,10.80
2023-01-11T16:20:29.005Z,10.75
2023-01-11T16:23:42.578Z,10.65
2023-01-11T16:26:50.643Z,10.63
2023-01-11T16:29:56.073Z,10.66
2023-01-11T16:33:15.391Z,10.65
2023-01-11T16:36:21.302Z,10.65
2023-01-11T16:39:26.699Z,10.63
2023-01-11T16:42:34.795Z,10.59
2023-01-11T16:45:41.761Z,10.52
2023-01-11T16:48:46.933Z,10.57
2023-01-11T16:51:51.962Z,10.52
2023-01-11T16:54:55.358Z,10.54
2023-01-11T16:58:01.089Z,10.59
2023-01-11T17:01:06.448Z,10.61
2023-01-11T17:04:30.189Z,10.61
2023-01-11T17:07:37.337Z,10.63
2023-01-11T17:10:40.291Z,10.65
2023-01-11T17:14:06.692Z,10.62
2023-01-11T17:17:13.974Z,10.65
2023-01-11T17:20:20.653Z,10.60
2023-01-11T17:23:24.836Z,10.56
2023-01-11T17:26:31.159Z,10.48
2023-01-11T17:29:36.743Z,10.33
2023-01-11T17:32:43.623Z,10.32
2023-01-11T17:35:50.939Z,10.27
2023-01-11T17:38:55.908Z,10.20
2023-01-11T17:42:17.589Z,10.16
2023-01-11T17:45:22.732Z,10.03
2023-01-11T17:48:27.709Z,10.16
2023-01-11T17:51:41.163Z,10.15
2023-01-11T17:55:17.933Z,10.16
2023-01-11T17:58:26.162Z,10.18
2023-01-11T18:01:29.273Z,10.18
2023-01-11T18:04:32.760Z,10.18
2023-01-11T18:07:43.308Z,10.19
2023-01-11T18:10:54.500Z,10.21
2023-01-11T18:14:02.880Z,10.19
2023-01-11T18:17:26.233Z,10.22
2023-01-11T18:20:38.285Z,10.18
2023-01-11T18:23:40.961Z,10.17
2023-01-11T18:26:47.586Z,10.11
2023-01-11T18:29:58.929Z,10.02
2023-01-11T18:33:03.939Z,10.00
2023-01-11T18:36:21.222Z,10.01
2023-01-11T18:39:24.123Z,10.09
2023-01-11T18:42:34.760Z,9.99
2023-01-11T18:45:37.845Z,9.93
2023-01-11T18:48:47.822Z,9.84
2023-01-11T18:51:50.446Z,9.75
2023-01-11T18:54:57.255Z,9.76
2023-01-11T18:58:01.953Z,9.80
2023-01-11T19:01:07.831Z,9.78
2023-01-11T19:04:11.196Z,9.79
2023-01-11T19:07:15.230Z,9.81
2023-01-11T19:10:20.246Z,9.89
2023-01-11T19:13:31.566Z,9.91
2023-01-11T19:16:34.214Z,9.99
2023-01-11T19:19:36.943Z,10.08
2023-01-11T19:22:42.626Z,10.10
2023-01-11T19:25:45.328Z,10.13
2023-01-11T19:28:49.516Z,10.17
2023-01-11T19:31:55.473Z,10.18
2023-01-11T19:35:00.264Z,10.24
2023-01-11T19:38:03.487Z,10.16
2023-01-11T19:41:08.279Z,10.05
2023-01-11T19:44:12.343Z,9.92
2023-01-11T19:47:16.294Z,9.87
2023-01-11T19:50:22.041Z,9.83
2023-01-11T19:53:24.885Z,9.88
2023-01-11T19:56:30.771Z,9.91
2023-01-11T19:59:34.927Z,9.95
2023-01-11T20:02:37.667Z,9.97
2023-01-11T20:05:40.566Z,9.91
2023-01-11T20:08:43.883Z,9.88
2023-01-11T20:11:49.133Z,9.89
2023-01-11T20:14:56.957Z,9.93
2023-01-11T20:18:00.301Z,9.95
2023-01-11T20:21:06.248Z,9.89
2023-01-11T20:24:13.751Z,9.93
2023-01-11T20:27:16.646Z,9.88
2023-01-11T20:30:28.405Z,9.81
2023-01-11T20:33:31.159Z,9.74
2023-01-11T20:36:34.180Z,9.66
2023-01-11T20:39:40.109Z,9.54
2023-01-11T20:42:43.442Z,9.41
2023-01-11T20:45:57.739Z,9.30
2023-01-11T20:49:01.473Z,9.18
2023-01-11T20:52:04.473Z,9.08
2023-01-11T20:55:10.975Z,8.94
2023-01-11T20:58:14.391Z,8.85
2023-01-11T21:01:20.050Z,8.76
2023-01-11T21:04:23.011Z,8.69
2023-01-11T21:07:26.186Z,8.65
2023-01-11T21:10:29.288Z,8.50
2023-01-11T21:13:39.338Z,8.53
2023-01-11T21:16:44.411Z,8.49
2023-01-11T21:19:47.804Z,8.47
2023-01-11T21:22:50.933Z,8.43
2023-01-11T21:25:53.843Z,8.39
2023-01-11T21:28:59.191Z,8.35
2023-01-11T21:32:03.690Z,8.36
2023-01-11T21:35:07.499Z,8.37
2023-01-11T21:38:13.154Z,8.44
2023-01-11T21:41:18.000Z,8.49
2023-01-11T21:44:27.419Z,8.56
2023-01-11T21:47:31.572Z,8.67
2023-01-11T21:50:36.542Z,8.75
2023-01-11T21:53:39.243Z,8.80
2023-01-11T21:56:42.701Z,8.84
2023-01-11T21:59:45.337Z,8.85
2023-01-11T22:02:52.317Z,8.88
2023-01-11T22:06:00.903Z,8.88
2023-01-11T22:09:04.083Z,8.90
2023-01-11T22:12:07.420Z,8.93
2023-01-11T22:15:11.127Z,8.95
2023-01-11T22:18:15.353Z,9.01
2023-01-11T22:21:19.664Z,9.10
2023-01-11T22:24:29.624Z,9.19
2023-01-11T22:27:32.398Z,9.29
2023-01-11T22:30:35.150Z,9.31
2023-01-11T22:33:39.246Z,9.33
2023-01-11T22:36:42.727Z,9.40
2023-01-11T22:39:45.375Z,9.41
2023-01-11T22:42:48.102Z,9.47
2023-01-11T22:45:57.754Z,9.42
2023-01-11T22:49:01.911Z,9.51
2023-01-11T22:52:06.597Z,9.54
2023-01-11T22:55:10.144Z,9.55
2023-01-11T22:58:12.977Z,9.54
2023-01-11T23:01:17.187Z,9.61
2023-01-11T23:04:23.415Z,9.60
2023-01-11T23:07:26.150Z,9.62
2023-01-11T23:10:28.803Z,9.57
2023-01-11T23:13:49.077Z,9.58
2023-01-11T23:16:51.894Z,9.57
2023-01-11T23:20:02.077Z,9.54
2023-01-11T23:23:04.884Z,9.52
2023-01-11T23:26:08.092Z,9.46
2023-01-11T23:29:10.898Z,9.38
2023-01-11T23:32:19.624Z,9.28
2023-01-11T23:35:23.782Z,9.18
2023-01-11T23:38:33.614Z,9.14
2023-01-11T23:41:54.062Z,9.09
2023-01-11T23:45:00.023Z,9.10
2023-01-11T23:48:05.660Z,9.14
2023-01-11T23:51:12.238Z,9.10
2023-01-11T23:54:15.256Z,9.08
2023-01-11T23:57:21.913Z,9.06
